createdAt,value
2023-05-09T00:00:49.027Z,0.90
2023-05-09T00:03:16.791Z,0.75
2023-05-09T00:05:44.585Z,0.70
2023-05-09T00:08:12.140Z,0.80
2023-05-09T00:10:40.288Z,0.75
2023-05-09T00:13:08.306Z,0.70
2023-05-09T00:15:36.090Z,0.90
2023-05-09T00:18:03.614Z,0.70
2023-05-09T00:20:31.345Z,0.80
2023-05-09T00:22:58.835Z,0.80
2023-05-09T00:25:26.586Z,0.60
2023-05-09T00:27:54.063Z,0.85
2023-05-09T00:30:21.849Z,0.50
2023-05-09T00:32:49.310Z,0.60
2023-05-09T00:35:17.304Z,0.60
2023-05-09T00:37:44.866Z,0.60
2023-05-09T00:40:12.869Z,1.13
2023-05-09T00:42:40.338Z,0.70
2023-05-09T00:45:08.997Z,0.63
2023-05-09T00:47:36.651Z,0.82
2023-05-09T00:50:05.256Z,0.60
2023-05-09T00:52:34.101Z,0.60
2023-05-09T00:55:03.139Z,0.73
2023-05-09T00:57:30.811Z,0.60
2023-05-09T00:59:58.567Z,0.60
2023-05-09T01:02:26.608Z,0.50
2023-05-09T01:04:54.435Z,0.90
2023-05-09T01:07:38.470Z,0.80
2023-05-09T01:10:22.372Z,0.75
2023-05-09T01:13:06.510Z,1.00
2023-05-09T01:15:43.627Z,0.60
2023-05-09T01:18:48.392Z,0.80
2023-05-09T01:21:20.948Z,0.73
2023-05-09T01:24:13.992Z,0.55
2023-05-09T01:26:57.513Z,0.73
2023-05-09T01:29:33.985Z,0.80
2023-05-09T01:32:15.979Z,0.80
2023-05-09T01:34:49.995Z,0.60
2023-05-09T01:37:20.541Z,0.88
2023-05-09T01:39:52.366Z,0.70
2023-05-09T01:42:21.719Z,0.70
2023-05-09T01:44:49.976Z,0.80
2023-05-09T01:47:20.164Z,0.60
2023-05-09T01:49:48.406Z,0.90
2023-05-09T01:52:18.099Z,0.75
2023-05-09T01:54:46.656Z,0.80
2023-05-09T01:57:15.435Z,0.90
2023-05-09T01:59:45.016Z,1.07
2023-05-09T02:02:13.425Z,0.70
2023-05-09T02:04:43.059Z,0.60
2023-05-09T02:07:12.077Z,0.60
2023-05-09T02:09:39.654Z,0.90
2023-05-09T02:12:07.583Z,0.80
2023-05-09T02:14:34.928Z,0.80
2023-05-09T02:17:07.220Z,0.93
2023-05-09T02:19:36.035Z,0.80
2023-05-09T02:22:05.342Z,0.75
2023-05-09T02:24:34.828Z,0.83
2023-05-09T02:27:07.540Z,0.70
2023-05-09T02:29:43.943Z,1.38
2023-05-09T02:32:16.023Z,0.88
2023-05-09T02:34:45.761Z,1.00
2023-05-09T02:37:14.244Z,0.73
2023-05-09T02:39:41.878Z,0.93
2023-05-09T02:42:11.865Z,0.77
2023-05-09T02:44:39.502Z,1.00
2023-05-09T02:47:08.171Z,0.80
2023-05-09T02:49:36.532Z,0.80
2023-05-09T02:52:05.920Z,0.85
2023-05-09T02:54:33.441Z,0.85
2023-05-09T02:57:01.405Z,0.82
2023-05-09T02:59:29.426Z,0.88
2023-05-09T03:02:00.332Z,0.80
2023-05-09T03:04:27.952Z,0.60
2023-05-09T03:06:55.889Z,1.10
2023-05-09T03:09:25.018Z,0.73
2023-05-09T03:11:52.716Z,1.25
2023-05-09T03:14:20.854Z,0.80
2023-05-09T03:16:48.921Z,0.80
2023-05-09T03:19:30.864Z,0.90
2023-05-09T03:21:58.675Z,1.25
2023-05-09T03:24:28.495Z,1.00
2023-05-09T03:26:56.262Z,0.70
2023-05-09T03:29:23.682Z,0.80
2023-05-09T03:31:51.516Z,0.70
2023-05-09T03:34:18.956Z,0.90
2023-05-09T03:36:47.019Z,0.90
2023-05-09T03:39:15.702Z,0.70
2023-05-09T03:41:46.965Z,0.90
2023-05-09T03:44:14.737Z,0.98
2023-05-09T03:46:42.905Z,0.75
2023-05-09T03:49:10.933Z,1.20
2023-05-09T03:51:40.672Z,1.50
2023-05-09T03:54:13.981Z,1.10
2023-05-09T03:56:41.975Z,1.48
2023-05-09T03:59:10.070Z,1.30
2023-05-09T04:01:40.020Z,1.05
2023-05-09T04:04:08.072Z,0.97
2023-05-09T04:06:37.912Z,1.30
2023-05-09T04:09:07.577Z,1.35
2023-05-09T04:11:35.848Z,1.40
2023-05-09T04:14:07.417Z,1.83
2023-05-09T04:16:37.502Z,1.87
2023-05-09T04:19:04.953Z,3.17
2023-05-09T04:21:33.166Z,3.15
2023-05-09T04:24:02.412Z,2.90
2023-05-09T04:26:38.716Z,2.88
2023-05-09T04:29:09.226Z,5.13
2023-05-09T04:31:37.471Z,2.60
2023-05-09T04:34:07.617Z,2.00
2023-05-09T04:36:37.282Z,2.72
2023-05-09T04:39:05.615Z,2.33
2023-05-09T04:41:35.651Z,2.03
2023-05-09T04:44:03.678Z,2.30
2023-05-09T04:46:31.356Z,2.00
2023-05-09T04:48:58.947Z,1.70
2023-05-09T04:51:27.381Z,2.10
2023-05-09T04:53:55.036Z,1.90
2023-05-09T04:56:28.602Z,2.00
2023-05-09T04:58:56.761Z,1.77
2023-05-09T05:01:24.871Z,2.25
2023-05-09T05:03:52.590Z,3.05
2023-05-09T05:06:20.540Z,3.40
2023-05-09T05:08:48.424Z,2.60
2023-05-09T05:11:18.236Z,2.85
2023-05-09T05:13:46.245Z,1.95
2023-05-09T05:16:14.277Z,1.40
2023-05-09T05:18:42.599Z,1.60
2023-05-09T05:21:10.889Z,1.52
2023-05-09T05:23:38.744Z,1.40
2023-05-09T05:26:06.928Z,1.13
2023-05-09T05:28:36.111Z,1.60
2023-05-09T05:31:04.970Z,1.20
2023-05-09T05:33:33.177Z,1.17
2023-05-09T05:36:02.522Z,1.40
2023-05-09T05:38:30.170Z,0.93
2023-05-09T05:40:59.822Z,1.05
2023-05-09T05:43:30.635Z,1.03
2023-05-09T05:45:58.614Z,1.27
2023-05-09T05:48:27.894Z,1.50
2023-05-09T05:50:56.352Z,1.10
2023-05-09T05:53:27.337Z,1.52
2023-05-09T05:55:55.395Z,1.20
2023-05-09T05:58:23.144Z,1.08
2023-05-09T06:00:52.809Z,1.90
2023-05-09T06:03:20.610Z,1.40
2023-05-09T06:05:54.372Z,1.10
2023-05-09T06:08:22.014Z,1.00
2023-05-09T06:10:49.806Z,1.20
2023-05-09T06:13:17.472Z,1.15
2023-05-09T06:15:49.971Z,1.00
2023-05-09T06:18:17.664Z,1.23
2023-05-09T06:20:45.581Z,1.00
2023-05-09T06:23:13.066Z,1.35
2023-05-09T06:25:41.070Z,1.45
2023-05-09T06:28:08.640Z,1.27
2023-05-09T06:30:36.391Z,1.30
2023-05-09T06:33:04.056Z,1.20
2023-05-09T06:35:31.973Z,1.58
2023-05-09T06:37:59.594Z,1.48
2023-05-09T06:40:27.694Z,1.30
2023-05-09T06:42:55.556Z,1.40
2023-05-09T06:45:23.583Z,1.30
2023-05-09T06:47:51.298Z,1.30
2023-05-09T06:50:19.259Z,1.27
2023-05-09T06:52:46.928Z,1.30
2023-05-09T06:55:14.961Z,1.52
2023-05-09T06:57:42.857Z,1.53
2023-05-09T07:00:11.624Z,1.38
2023-05-09T07:02:42.334Z,1.52
2023-05-09T07:05:11.219Z,1.30
2023-05-09T07:07:42.016Z,1.60
2023-05-09T07:10:12.349Z,1.30
2023-05-09T07:12:41.230Z,1.45
2023-05-09T07:15:09.961Z,1.75
2023-05-09T07:17:37.690Z,1.60
2023-05-09T07:20:06.532Z,1.70
2023-05-09T07:22:36.413Z,1.40
2023-05-09T07:25:07.607Z,1.42
2023-05-09T07:27:36.319Z,1.80
2023-05-09T07:30:05.884Z,1.88
2023-05-09T07:32:33.680Z,1.60
2023-05-09T07:35:01.925Z,1.30
2023-05-09T07:37:29.557Z,1.77
2023-05-09T07:39:57.563Z,1.58
2023-05-09T07:42:25.154Z,1.40
2023-05-09T07:44:53.474Z,1.83
2023-05-09T07:47:20.984Z,1.90
2023-05-09T07:49:49.161Z,1.75
2023-05-09T07:52:18.052Z,1.80
2023-05-09T07:54:46.088Z,1.70
2023-05-09T07:57:13.581Z,1.85
2023-05-09T07:59:41.554Z,1.60
2023-05-09T08:02:10.164Z,1.63
2023-05-09T08:04:39.473Z,1.70
2023-05-09T08:07:07.657Z,1.83
2023-05-09T08:09:35.815Z,1.60
2023-05-09T08:12:03.694Z,1.37
2023-05-09T08:14:31.795Z,1.70
2023-05-09T08:16:59.243Z,1.77
2023-05-09T08:19:27.105Z,1.52
2023-05-09T08:21:54.763Z,1.80
2023-05-09T08:24:22.713Z,1.63
2023-05-09T08:26:50.262Z,1.70
2023-05-09T08:29:18.338Z,1.80
2023-05-09T08:31:45.893Z,1.70
2023-05-09T08:34:14.631Z,1.40
2023-05-09T08:36:42.431Z,1.70
2023-05-09T08:39:11.012Z,1.30
2023-05-09T08:41:40.033Z,1.85
2023-05-09T08:44:08.493Z,1.83
2023-05-09T08:46:39.267Z,1.70
2023-05-09T08:49:08.657Z,1.60
2023-05-09T08:51:36.984Z,1.90
2023-05-09T08:54:05.898Z,1.83
2023-05-09T08:56:35.861Z,1.42
2023-05-09T08:59:05.957Z,1.95
2023-05-09T09:01:36.938Z,1.70
2023-05-09T09:04:09.296Z,1.40
2023-05-09T09:06:37.433Z,1.60
2023-05-09T09:09:07.345Z,1.50
2023-05-09T09:11:36.338Z,1.85
2023-05-09T09:14:22.153Z,1.70
2023-05-09T09:16:56.543Z,1.60
2023-05-09T09:19:35.835Z,1.60
2023-05-09T09:22:05.290Z,1.40
2023-05-09T09:24:34.880Z,1.88
2023-05-09T09:27:06.833Z,1.30
2023-05-09T09:29:35.477Z,1.30
2023-05-09T09:32:07.731Z,1.50
2023-05-09T09:34:35.747Z,1.30
2023-05-09T09:37:06.959Z,1.55
2023-05-09T09:39:35.325Z,1.20
2023-05-09T09:42:13.900Z,1.15
2023-05-09T09:44:43.454Z,1.30
2023-05-09T09:47:11.952Z,1.38
2023-05-09T09:49:46.804Z,1.48
2023-05-09T09:52:25.172Z,1.40
2023-05-09T09:54:57.242Z,1.50
2023-05-09T09:57:37.893Z,2.05
2023-05-09T10:00:08.302Z,1.70
2023-05-09T10:02:50.555Z,1.65
2023-05-09T10:05:30.452Z,1.57
2023-05-09T10:08:00.695Z,1.40
2023-05-09T10:10:35.002Z,1.30
2023-05-09T10:13:07.908Z,1.48
2023-05-09T10:15:52.147Z,1.20
2023-05-09T10:18:28.958Z,1.50
2023-05-09T10:21:03.723Z,1.23
2023-05-09T10:23:33.160Z,1.60
2023-05-09T10:26:06.722Z,1.20
2023-05-09T10:28:36.634Z,1.60
2023-05-09T10:31:25.638Z,2.13
2023-05-09T10:34:02.630Z,1.83
2023-05-09T10:36:33.836Z,2.00
2023-05-09T10:39:02.454Z,1.88
2023-05-09T10:41:32.485Z,1.20
2023-05-09T10:44:00.578Z,1.47
2023-05-09T10:46:30.282Z,1.50
2023-05-09T10:48:58.762Z,1.67
2023-05-09T10:51:33.780Z,1.40
2023-05-09T10:54:33.796Z,2.25
2023-05-09T10:57:02.102Z,5.53
2023-05-09T10:59:43.236Z,3.90
2023-05-09T11:02:21.280Z,1.85
2023-05-09T11:04:49.312Z,1.42
2023-05-09T11:07:27.108Z,1.80
2023-05-09T11:10:15.900Z,1.20
2023-05-09T11:13:13.174Z,1.73
2023-05-09T11:16:02.134Z,1.73
2023-05-09T11:18:32.751Z,1.40
2023-05-09T11:21:10.001Z,1.50
2023-05-09T11:23:39.186Z,1.60
2023-05-09T11:26:09.161Z,2.03
2023-05-09T11:28:38.672Z,2.53
2023-05-09T11:31:17.140Z,2.00
2023-05-09T11:33:47.532Z,1.80
2023-05-09T11:36:30.386Z,1.83
2023-05-09T11:39:02.887Z,2.00
2023-05-09T11:41:31.369Z,1.83
2023-05-09T11:44:00.631Z,1.60
2023-05-09T11:46:28.554Z,1.83
2023-05-09T11:48:58.308Z,1.90
2023-05-09T11:51:27.213Z,1.60
2023-05-09T11:53:55.881Z,1.40
2023-05-09T11:56:23.447Z,1.42
2023-05-09T11:58:52.537Z,1.83
2023-05-09T12:01:21.079Z,1.67
2023-05-09T12:03:49.954Z,2.63
2023-05-09T12:06:19.100Z,1.83
2023-05-09T12:08:48.319Z,2.05
2023-05-09T12:11:16.148Z,2.28
2023-05-09T12:13:49.250Z,2.53
2023-05-09T12:16:18.303Z,2.55
2023-05-09T12:18:51.758Z,1.98
2023-05-09T12:21:20.808Z,2.20
2023-05-09T12:23:50.954Z,3.00
2023-05-09T12:26:20.112Z,1.60
2023-05-09T12:28:48.912Z,1.70
2023-05-09T12:31:17.825Z,3.85
2023-05-09T12:33:46.303Z,3.05
2023-05-09T12:36:14.838Z,2.10
2023-05-09T12:38:54.367Z,2.70
2023-05-09T12:41:37.065Z,1.90
2023-05-09T12:44:07.685Z,2.05
2023-05-09T12:46:35.849Z,1.60
2023-05-09T12:49:05.742Z,1.60
2023-05-09T12:51:33.380Z,1.50
2023-05-09T12:54:05.199Z,2.50
2023-05-09T12:56:39.612Z,2.75
2023-05-09T12:59:11.300Z,1.70
2023-05-09T13:01:39.559Z,2.00
2023-05-09T13:04:10.485Z,2.90
2023-05-09T13:06:58.893Z,3.08
2023-05-09T13:09:30.427Z,2.15
2023-05-09T13:12:01.259Z,1.80
2023-05-09T13:14:31.915Z,1.75
2023-05-09T13:17:00.531Z,2.80
2023-05-09T13:19:44.806Z,1.95
2023-05-09T13:22:19.469Z,1.90
2023-05-09T13:24:48.108Z,2.78
2023-05-09T13:27:15.790Z,2.63
2023-05-09T13:29:43.806Z,1.83
2023-05-09T13:32:20.038Z,1.73
2023-05-09T13:34:48.218Z,1.50
2023-05-09T13:37:15.814Z,1.70
2023-05-09T13:40:03.562Z,1.52
2023-05-09T13:43:42.981Z,2.43
2023-05-09T13:46:10.819Z,1.85
2023-05-09T13:48:44.873Z,1.70
2023-05-09T13:51:16.892Z,2.35
2023-05-09T13:53:44.927Z,1.67
2023-05-09T13:56:12.654Z,1.70
2023-05-09T13:58:48.745Z,1.85
2023-05-09T14:02:04.476Z,1.52
2023-05-09T14:04:59.436Z,1.75
2023-05-09T14:07:27.262Z,1.48
2023-05-09T14:10:10.472Z,1.47
2023-05-09T14:12:40.610Z,1.70
2023-05-09T14:15:08.972Z,1.58
2023-05-09T14:17:36.866Z,1.50
2023-05-09T14:20:05.235Z,1.60
2023-05-09T14:22:34.229Z,1.30
2023-05-09T14:25:03.693Z,1.40
2023-05-09T14:27:32.503Z,1.70
2023-05-09T14:30:02.087Z,1.60
2023-05-09T14:32:35.214Z,1.65
2023-05-09T14:35:06.508Z,1.60
2023-05-09T14:37:34.310Z,1.35
2023-05-09T14:40:06.044Z,1.60
2023-05-09T14:42:34.084Z,1.17
2023-05-09T14:45:02.082Z,1.70
2023-05-09T14:47:29.770Z,1.53
2023-05-09T14:49:57.577Z,1.27
2023-05-09T14:52:25.041Z,1.50
2023-05-09T14:54:53.043Z,1.63
2023-05-09T14:57:21.131Z,1.75
2023-05-09T14:59:48.868Z,1.70
2023-05-09T15:02:16.587Z,1.50
2023-05-09T15:04:45.314Z,1.75
2023-05-09T15:07:14.476Z,1.40
2023-05-09T15:09:48.729Z,1.23
2023-05-09T15:12:19.611Z,1.40
2023-05-09T15:14:47.859Z,1.88
2023-05-09T15:17:15.499Z,2.35
2023-05-09T15:19:43.610Z,1.85
2023-05-09T15:22:11.633Z,1.70
2023-05-09T15:24:42.990Z,1.63
2023-05-09T15:27:11.074Z,1.85
2023-05-09T15:29:39.164Z,1.70
2023-05-09T15:32:07.369Z,1.98
2023-05-09T15:34:35.147Z,2.00
2023-05-09T15:37:02.944Z,1.73
2023-05-09T15:39:34.903Z,2.30
2023-05-09T15:42:04.654Z,1.70
2023-05-09T15:44:35.628Z,2.00
2023-05-09T15:47:04.456Z,3.17
2023-05-09T15:49:32.976Z,1.90
2023-05-09T15:52:13.232Z,1.77
2023-05-09T15:54:41.575Z,1.98
2023-05-09T15:57:09.315Z,2.00
2023-05-09T15:59:37.500Z,2.00
2023-05-09T16:02:13.555Z,1.80
2023-05-09T16:04:53.888Z,2.47
2023-05-09T16:07:27.685Z,2.35
2023-05-09T16:09:59.634Z,1.80
2023-05-09T16:12:28.791Z,2.50
2023-05-09T16:14:56.770Z,1.80
2023-05-09T16:17:24.354Z,1.98
2023-05-09T16:19:52.220Z,2.05
2023-05-09T16:22:22.977Z,1.98
2023-05-09T16:24:59.086Z,2.03
2023-05-09T16:27:26.669Z,2.10
2023-05-09T16:29:57.290Z,2.08
2023-05-09T16:32:25.303Z,2.40
2023-05-09T16:34:55.739Z,2.00
2023-05-09T16:37:30.266Z,2.30
2023-05-09T16:40:02.604Z,1.97
2023-05-09T16:42:30.303Z,2.70
2023-05-09T16:44:58.361Z,2.45
2023-05-09T16:47:26.095Z,2.80
2023-05-09T16:49:53.959Z,2.58
2023-05-09T16:52:25.527Z,2.40
2023-05-09T16:55:00.433Z,2.38
2023-05-09T16:57:40.561Z,2.17
2023-05-09T17:00:10.192Z,2.08
2023-05-09T17:02:41.224Z,1.80
2023-05-09T17:05:09.525Z,1.93
2023-05-09T17:07:37.134Z,2.08
2023-05-09T17:10:05.582Z,2.13
2023-05-09T17:12:33.112Z,2.42
2023-05-09T17:15:01.428Z,3.28
2023-05-09T17:17:28.920Z,3.40
2023-05-09T17:19:57.955Z,4.15
2023-05-09T17:22:52.763Z,7.60
2023-05-09T17:26:52.304Z,6.15
2023-05-09T17:29:36.404Z,9.48
2023-05-09T17:32:26.562Z,4.90
2023-05-09T17:35:59.719Z,2.85
2023-05-09T17:38:42.508Z,2.90
2023-05-09T17:41:17.790Z,3.22
2023-05-09T17:47:54.429Z,2.70
2023-05-09T17:50:41.339Z,2.67
2023-05-09T17:53:36.430Z,2.55
2023-05-09T17:56:22.846Z,2.42
2023-05-09T17:59:11.731Z,2.97
2023-05-09T18:02:21.141Z,3.30
2023-05-09T18:04:52.125Z,3.50
2023-05-09T18:07:20.270Z,4.10
2023-05-09T18:09:49.404Z,4.25
2023-05-09T18:12:16.990Z,4.38
2023-05-09T18:14:45.040Z,5.40
2023-05-09T18:17:17.262Z,4.65
2023-05-09T18:19:45.393Z,5.95
2023-05-09T18:22:20.669Z,5.32
2023-05-09T18:24:59.239Z,13.13
2023-05-09T18:27:36.900Z,11.30
2023-05-09T18:30:44.784Z,11.43
2023-05-09T18:33:14.846Z,13.60
2023-05-09T18:35:49.774Z,15.48
2023-05-09T18:38:55.055Z,12.90
2023-05-09T18:42:14.534Z,10.70
2023-05-09T18:45:10.370Z,7.80
2023-05-09T18:47:39.270Z,8.93
2023-05-09T18:50:07.885Z,8.32
2023-05-09T18:52:35.761Z,5.68
2023-05-09T18:55:03.815Z,4.70
2023-05-09T18:57:31.492Z,4.55
2023-05-09T18:59:59.579Z,4.90
2023-05-09T19:02:27.382Z,4.90
2023-05-09T19:04:55.309Z,5.57
2023-05-09T19:07:23.055Z,5.57
2023-05-09T19:09:51.062Z,6.43
2023-05-09T19:12:19.330Z,6.38
2023-05-09T19:14:47.096Z,5.30
2023-05-09T19:17:14.788Z,4.68
2023-05-09T19:19:42.682Z,4.60
2023-05-09T19:22:28.927Z,4.10
2023-05-09T19:24:59.668Z,3.97
2023-05-09T19:27:27.420Z,6.35
2023-05-09T19:29:55.445Z,6.72
2023-05-09T19:32:23.315Z,6.20
2023-05-09T19:34:51.179Z,5.13
2023-05-09T19:37:18.884Z,5.07
2023-05-09T19:39:46.788Z,4.43
2023-05-09T19:42:15.205Z,4.45
2023-05-09T19:44:43.146Z,3.70
2023-05-09T19:47:11.302Z,3.83
2023-05-09T19:49:40.634Z,4.07
2023-05-09T19:52:09.386Z,4.38
2023-05-09T19:54:37.243Z,4.10
2023-05-09T19:57:06.686Z,3.80
2023-05-09T19:59:34.515Z,3.85
2023-05-09T20:02:02.400Z,3.80
2023-05-09T20:04:36.181Z,3.92
2023-05-09T20:07:05.023Z,4.20
2023-05-09T20:09:33.295Z,4.93
2023-05-09T20:12:03.766Z,4.68
2023-05-09T20:14:32.279Z,5.60
2023-05-09T20:17:00.006Z,4.82
2023-05-09T20:19:28.151Z,4.63
2023-05-09T20:21:55.840Z,4.47
2023-05-09T20:24:23.674Z,4.25
2023-05-09T20:26:51.432Z,4.75
2023-05-09T20:29:19.373Z,4.45
2023-05-09T20:31:47.664Z,3.92
2023-05-09T20:34:18.207Z,4.17
2023-05-09T20:36:48.674Z,4.00
2023-05-09T20:39:18.029Z,4.10
2023-05-09T20:41:46.222Z,4.00
2023-05-09T20:44:14.997Z,3.88
2023-05-09T20:46:42.833Z,4.00
2023-05-09T20:49:11.488Z,4.28
2023-05-09T20:51:40.290Z,4.63
2023-05-09T20:54:08.226Z,4.97
2023-05-09T20:56:35.792Z,4.72
2023-05-09T20:59:04.485Z,5.73
2023-05-09T21:01:35.653Z,3.88
2023-05-09T21:04:08.581Z,4.00
2023-05-09T21:06:36.734Z,3.75
2023-05-09T21:09:09.442Z,4.18
2023-05-09T21:11:38.597Z,4.20
2023-05-09T21:14:08.813Z,4.65
2023-05-09T21:16:36.266Z,4.70
2023-05-09T21:19:05.439Z,4.75
2023-05-09T21:21:33.480Z,4.20
2023-05-09T21:24:09.896Z,4.73
2023-05-09T21:26:37.504Z,4.22
2023-05-09T21:29:05.585Z,4.95
2023-05-09T21:31:33.135Z,7.28
2023-05-09T21:34:01.221Z,10.25
2023-05-09T21:36:29.181Z,5.73
2023-05-09T21:38:56.957Z,5.40
2023-05-09T21:41:24.515Z,4.68
2023-05-09T21:43:52.859Z,4.63
2023-05-09T21:46:20.543Z,4.60
2023-05-09T21:48:48.546Z,4.73
2023-05-09T21:51:16.061Z,4.70
2023-05-09T21:53:43.949Z,4.80
2023-05-09T21:56:11.816Z,4.10
2023-05-09T21:58:39.731Z,4.15
2023-05-09T22:01:07.304Z,3.33
2023-05-09T22:03:35.951Z,3.35
2023-05-09T22:06:03.736Z,3.75
2023-05-09T22:08:31.466Z,3.95
2023-05-09T22:10:59.033Z,3.75
2023-05-09T22:13:29.019Z,3.20
2023-05-09T22:15:56.869Z,3.67
2023-05-09T22:18:24.561Z,3.20
2023-05-09T22:20:52.082Z,3.33
2023-05-09T22:23:19.771Z,3.90
2023-05-09T22:25:47.253Z,3.50
2023-05-09T22:28:15.187Z,3.67
2023-05-09T22:30:42.618Z,6.05
2023-05-09T22:33:10.400Z,4.05
2023-05-09T22:35:37.941Z,3.47
2023-05-09T22:38:05.764Z,3.60
2023-05-09T22:40:33.948Z,3.45
2023-05-09T22:43:01.802Z,4.22
2023-05-09T22:45:29.303Z,3.35
2023-05-09T22:47:57.179Z,4.72
2023-05-09T22:50:24.929Z,4.20
2023-05-09T22:52:52.840Z,3.60
2023-05-09T22:55:20.487Z,3.85
2023-05-09T22:57:48.442Z,3.70
2023-05-09T23:00:16.753Z,4.35
2023-05-09T23:02:44.798Z,3.60
2023-05-09T23:05:12.364Z,3.50
2023-05-09T23:07:40.115Z,3.55
2023-05-09T23:10:08.202Z,3.65
2023-05-09T23:12:36.006Z,3.60
2023-05-09T23:15:03.711Z,3.57
2023-05-09T23:17:31.396Z,3.40
2023-05-09T23:20:01.211Z,3.55
2023-05-09T23:22:28.912Z,3.38
2023-05-09T23:24:56.409Z,3.33
2023-05-09T23:27:24.219Z,3.20
2023-05-09T23:29:51.769Z,3.47
2023-05-09T23:32:19.521Z,3.63
2023-05-09T23:34:46.958Z,3.35
2023-05-09T23:37:14.622Z,4.10
2023-05-09T23:39:42.126Z,3.80
2023-05-09T23:42:10.237Z,3.55
2023-05-09T23:44:37.663Z,3.90
2023-05-09T23:47:05.329Z,4.00
2023-05-09T23:49:33.081Z,3.83
2023-05-09T23:52:00.804Z,3.23
2023-05-09T23:54:28.283Z,3.20
2023-05-09T23:56:58.143Z,3.38
2023-05-09T23:59:25.629Z,2.97
